This is the latest recevied weather packets stored in our database for station/object CA3EAP-13. If no packets are shown the sender has not sent any weather packets the latest 10 day(s).
| Time | Temp. | Humidity | Pressure | Rain* | Wind** | Luminosity | Snow |
|---|---|---|---|---|---|---|---|
| 1778032505 | 18.33° C | 60% | 1013.6 hPa | - | - | - | - |
| 1778031905 | 18.33° C | 60% | 1013.5 hPa | - | - | - | - |
| 1778031305 | 17.78° C | 62% | 1013.7 hPa | - | - | - | - |
| 1778030705 | 17.78° C | 63% | 1013.9 hPa | - | - | - | - |
| 1778030105 | 17.22° C | 64% | 1013.9 hPa | - | - | - | - |
| 1778029505 | 17.22° C | 64% | 1014 hPa | - | - | - | - |
| 1778028905 | 16.67° C | 66% | 1014.2 hPa | - | - | - | - |
| 1778028305 | 17.22° C | 64% | 1014 hPa | - | - | - | - |
| 1778027705 | 17.78° C | 62% | 1013.7 hPa | - | - | - | - |
| 1778027105 | 17.78° C | 62% | 1013.5 hPa | - | - | - | - |
| 1778026505 | 18.33° C | 62% | 1013.1 hPa | - | - | - | - |
| 1778025905 | 18.33° C | 61% | 1012.8 hPa | - | - | - | - |
| 1778025305 | 18.89° C | 60% | 1012.6 hPa | - | - | - | - |
| 1778024705 | 18.33° C | 61% | 1012.7 hPa | - | - | - | - |
| 1778024105 | 18.33° C | 61% | 1012.6 hPa | - | - | - | - |
| 1778023505 | 18.33° C | 61% | 1012.5 hPa | - | - | - | - |
| 1778022905 | 18.89° C | 60% | 1012.5 hPa | - | - | - | - |
| 1778022305 | 18.89° C | 59% | 1012.4 hPa | - | - | - | - |
| 1778021705 | 18.89° C | 59% | 1012.1 hPa | - | - | - | - |
| 1778021105 | 19.44° C | 59% | 1011.9 hPa | - | - | - | - |
| 1778020505 | 19.44° C | 57% | 1011.7 hPa | - | - | - | - |
| 1778019905 | 19.44° C | 58% | 1011.6 hPa | - | - | - | - |
| 1778019305 | 20° C | 57% | 1011.5 hPa | - | - | - | - |
| 1778018705 | 20° C | 57% | 1011.2 hPa | - | - | - | - |
| 1778018105 | 20° C | 55% | 1011.1 hPa | - | - | - | - |
* Rain since midnight (hover to see other rain measurements)
** Current wind speed in m/s (hover to see current wind gust speed)